Kenmore, Ohio
Current Conditions -  °F | °C
As of 1:54 AM on Sunday 26 Oct 2014 (Local Time) from KAKR Reporting Station
Clear Clear  
Wind Chill: 46°   Ceiling: Unl
Heat Index: 49°   Visibility: 10mi
Dew Point: 32°   Wind: 7mph
Humidity: 52%   Direction: 250°WSW
Pressure: 29.81"   Gusts: NA
Location:  41.0406°N, 81.5589°W
Report Text: KAKR 260554Z AUTO 25006KT 10SM CLR 09/00 A2981 RMK AO2 SLP091 T00940000 10178 20089 50000
Loading
Personal Weather Stations






























Interactive Weather Map
Tropical Storm Tracking
New forecast layout! Learn more

10-Day Weather Forecast

Advertisements
Track Severe Weather on mobile